createdAt,value
2018-05-17T00:02:06.968Z,97167.69
2018-05-17T00:04:34.422Z,97167.33
2018-05-17T00:07:01.839Z,97165.95
2018-05-17T00:09:30.563Z,97167.34
2018-05-17T00:11:57.993Z,97161.96
2018-05-17T00:14:25.514Z,97166.64
2018-05-17T00:16:52.919Z,97159.73
2018-05-17T00:19:20.353Z,97165.07
2018-05-17T00:21:47.770Z,97162.92
2018-05-17T00:24:15.338Z,97168.47
2018-05-17T00:26:42.819Z,97163.09
2018-05-17T00:29:10.293Z,97168.41
2018-05-17T00:31:37.757Z,97164.94
2018-05-17T00:34:05.205Z,97154.61
2018-05-17T00:36:32.640Z,97149.45
2018-05-17T00:39:00.036Z,97157.00
2018-05-17T00:41:27.475Z,97151.22
2018-05-17T00:43:54.901Z,97152.05
2018-05-17T00:46:22.522Z,97155.89
2018-05-17T00:48:49.969Z,97154.27
2018-05-17T00:51:17.496Z,97152.25
2018-05-17T00:53:44.939Z,97149.17
2018-05-17T00:56:12.366Z,97152.17
2018-05-17T00:58:39.845Z,97143.15
2018-05-17T01:01:07.249Z,97145.57
2018-05-17T01:03:38.412Z,97155.17
2018-05-17T01:06:05.805Z,97139.14
2018-05-17T01:08:33.316Z,97141.91
2018-05-17T01:11:00.772Z,97143.36
2018-05-17T01:13:28.208Z,97143.80
2018-05-17T01:15:55.713Z,97139.75
2018-05-17T01:18:23.803Z,97136.70
2018-05-17T01:20:51.261Z,97137.42
2018-05-17T01:23:18.735Z,97140.73
2018-05-17T01:25:46.148Z,97138.03
2018-05-17T01:28:13.573Z,97134.21
2018-05-17T01:30:41.006Z,97136.59
2018-05-17T01:33:08.444Z,97135.63
2018-05-17T01:35:35.865Z,97138.03
2018-05-17T01:38:15.030Z,97139.14
2018-05-17T01:40:42.526Z,97128.81
2018-05-17T01:43:10.284Z,97131.61
2018-05-17T01:45:37.683Z,97129.88
2018-05-17T01:48:05.122Z,97137.19
2018-05-17T01:50:32.559Z,97129.11
2018-05-17T01:53:00.014Z,97132.02
2018-05-17T01:55:27.494Z,97133.60
2018-05-17T01:57:54.996Z,97131.64
2018-05-17T02:00:23.228Z,97128.81
2018-05-17T02:02:50.723Z,97133.27
2018-05-17T02:05:18.152Z,97127.74
2018-05-17T02:07:45.670Z,97123.66
2018-05-17T02:10:13.227Z,97130.66
2018-05-17T02:12:40.671Z,97129.41
2018-05-17T02:15:08.110Z,97127.61
2018-05-17T02:17:36.508Z,97135.47
2018-05-17T02:20:04.058Z,97133.38
2018-05-17T02:22:32.230Z,97133.77
2018-05-17T02:24:59.658Z,97137.81
2018-05-17T02:27:27.130Z,97145.16
2018-05-17T02:29:55.526Z,97142.86
2018-05-17T02:32:22.939Z,97142.55
2018-05-17T02:34:50.361Z,97142.02
2018-05-17T02:37:17.837Z,97141.44
2018-05-17T02:39:45.507Z,97146.93
2018-05-17T02:42:12.969Z,97143.79
2018-05-17T02:44:40.414Z,97147.31
2018-05-17T02:47:07.828Z,97149.53
2018-05-17T02:49:43.846Z,97142.89
2018-05-17T02:52:11.270Z,97146.61
2018-05-17T02:54:38.722Z,97143.14
2018-05-17T02:57:06.388Z,97140.67
2018-05-17T02:59:33.823Z,97138.11
2018-05-17T03:02:01.258Z,97140.34
2018-05-17T03:04:28.698Z,97139.12
2018-05-17T03:06:56.168Z,97143.52
2018-05-17T03:09:23.602Z,97143.45
2018-05-17T03:11:51.010Z,97140.05
2018-05-17T03:14:18.475Z,97137.41
2018-05-17T03:16:47.106Z,97145.44
2018-05-17T03:19:14.506Z,97140.47
2018-05-17T03:21:41.960Z,97147.64
2018-05-17T03:24:09.535Z,97144.00
2018-05-17T03:26:36.995Z,97151.02
2018-05-17T03:29:04.477Z,97151.17
2018-05-17T03:31:31.916Z,97145.84
2018-05-17T03:33:59.331Z,97147.22
2018-05-17T03:36:26.823Z,97150.78
2018-05-17T03:38:54.302Z,97153.59
2018-05-17T03:41:21.764Z,97152.31
2018-05-17T03:43:49.281Z,97155.06
2018-05-17T03:46:16.829Z,97162.72
2018-05-17T03:48:44.427Z,97163.34
2018-05-17T03:51:11.924Z,97159.30
2018-05-17T03:53:39.391Z,97166.91
2018-05-17T03:56:06.863Z,97173.22
2018-05-17T03:58:34.291Z,97170.63
2018-05-17T04:01:13.454Z,97168.53
2018-05-17T04:03:52.687Z,97179.80
2018-05-17T04:06:31.984Z,97177.93
2018-05-17T04:08:59.487Z,97175.91
2018-05-17T04:11:26.952Z,97167.27
2018-05-17T04:13:54.378Z,97176.84
2018-05-17T04:16:24.487Z,97178.85
2018-05-17T04:18:51.969Z,97181.11
2018-05-17T04:21:19.505Z,97187.16
2018-05-17T04:23:46.920Z,97194.78
2018-05-17T04:26:14.327Z,97192.09
2018-05-17T04:28:41.723Z,97187.16
2018-05-17T04:31:17.936Z,97191.09
2018-05-17T04:33:45.389Z,97195.03
2018-05-17T04:36:12.881Z,97199.66
2018-05-17T04:38:40.380Z,97206.56
2018-05-17T04:41:07.784Z,97202.47
2018-05-17T04:43:35.188Z,97201.51
2018-05-17T04:46:02.675Z,97200.73
2018-05-17T04:48:30.115Z,97200.61
2018-05-17T04:50:57.544Z,97205.77
2018-05-17T04:53:26.228Z,97208.73
2018-05-17T04:55:53.889Z,97201.91
2018-05-17T04:58:21.299Z,97200.46
2018-05-17T05:00:48.846Z,97203.45
2018-05-17T05:03:17.207Z,97206.59
2018-05-17T05:05:45.875Z,97203.78
2018-05-17T05:08:13.314Z,97199.19
2018-05-17T05:10:40.765Z,97212.59
2018-05-17T05:13:08.161Z,97196.48
2018-05-17T05:15:35.558Z,97209.72
2018-05-17T05:18:03.432Z,97205.28
2018-05-17T05:20:30.844Z,97207.88
2018-05-17T05:22:58.281Z,97210.80
2018-05-17T05:25:25.743Z,97207.77
2018-05-17T05:27:53.949Z,97211.58
2018-05-17T05:30:21.337Z,97212.73
2018-05-17T05:32:48.752Z,97204.80
2018-05-17T05:35:16.827Z,97209.56
2018-05-17T05:37:44.266Z,97217.68
2018-05-17T05:40:11.791Z,97214.11
2018-05-17T05:42:40.041Z,97218.07
2018-05-17T05:45:07.475Z,97212.75
2018-05-17T05:47:34.998Z,97211.41
2018-05-17T05:50:02.435Z,97216.30
2018-05-17T05:52:29.838Z,97216.94
2018-05-17T05:54:57.297Z,97225.58
2018-05-17T05:57:24.732Z,97228.19
2018-05-17T05:59:56.073Z,97228.64
2018-05-17T06:02:23.576Z,97225.86
2018-05-17T06:04:51.764Z,97228.81
2018-05-17T06:07:19.274Z,97241.09
2018-05-17T06:09:46.749Z,97233.19
2018-05-17T06:12:14.164Z,97232.80
2018-05-17T06:14:41.594Z,97233.63
2018-05-17T06:17:09.048Z,97227.42
2018-05-17T06:19:36.495Z,97224.13
2018-05-17T06:22:03.909Z,97221.64
2018-05-17T06:24:31.356Z,97219.64
2018-05-17T06:26:58.800Z,97223.70
2018-05-17T06:29:26.193Z,97218.52
2018-05-17T06:31:53.627Z,97230.30
2018-05-17T06:34:21.024Z,97226.12
2018-05-17T06:36:48.457Z,97224.45
2018-05-17T06:39:15.934Z,97228.61
2018-05-17T06:41:43.435Z,97231.63
2018-05-17T06:44:10.850Z,97235.61
2018-05-17T06:46:38.274Z,97238.28
2018-05-17T06:49:05.732Z,97235.24
2018-05-17T06:51:33.150Z,97231.73
2018-05-17T06:54:00.587Z,97235.61
2018-05-17T06:56:28.081Z,97241.21
2018-05-17T06:58:55.541Z,97244.61
2018-05-17T07:01:22.991Z,97246.19
2018-05-17T07:03:50.435Z,97252.18
2018-05-17T07:06:19.144Z,97248.55
2018-05-17T07:08:46.636Z,97246.96
2018-05-17T07:11:14.186Z,97247.23
2018-05-17T07:13:41.660Z,97247.86
2018-05-17T07:16:09.210Z,97247.88
2018-05-17T07:18:37.887Z,97250.45
2018-05-17T07:21:05.105Z,97247.91
2018-05-17T07:23:32.572Z,97246.87
2018-05-17T07:26:00.018Z,97244.39
2018-05-17T07:28:27.416Z,97244.45
2018-05-17T07:30:54.896Z,97242.34
2018-05-17T07:33:26.104Z,97237.73
2018-05-17T07:35:54.631Z,97237.75
2018-05-17T07:38:22.767Z,97232.12
2018-05-17T07:40:50.295Z,97226.55
2018-05-17T07:43:17.745Z,97223.58
2018-05-17T07:45:46.166Z,97227.14
2018-05-17T07:48:13.657Z,97222.20
2018-05-17T07:50:41.107Z,97216.78
2018-05-17T07:53:11.768Z,97220.63
2018-05-17T07:55:39.613Z,97215.78
2018-05-17T07:58:07.032Z,97216.48
2018-05-17T08:00:34.688Z,97215.71
2018-05-17T08:03:02.098Z,97221.23
2018-05-17T08:05:32.401Z,97218.02
2018-05-17T08:07:59.893Z,97219.89
2018-05-17T08:10:27.378Z,97215.00
2018-05-17T08:12:54.980Z,97216.11
2018-05-17T08:15:22.417Z,97221.18
2018-05-17T08:17:49.867Z,97221.46
2018-05-17T08:20:17.270Z,97222.59
2018-05-17T08:22:44.721Z,97225.20
2018-05-17T08:25:12.142Z,97226.06
2018-05-17T08:27:39.648Z,97224.43
2018-05-17T08:30:07.128Z,97228.28
2018-05-17T08:32:35.019Z,97224.26
2018-05-17T08:35:02.463Z,97233.52
2018-05-17T08:37:29.969Z,97231.02
2018-05-17T08:39:57.912Z,97234.23
2018-05-17T08:42:25.356Z,97231.66
2018-05-17T08:44:52.838Z,97232.59
2018-05-17T08:47:20.319Z,97238.95
2018-05-17T08:49:47.983Z,97235.63
2018-05-17T08:52:15.388Z,97235.30
2018-05-17T08:54:42.843Z,97237.48
2018-05-17T08:57:10.290Z,97237.13
2018-05-17T08:59:38.530Z,97237.19
2018-05-17T09:02:06.733Z,97244.13
2018-05-17T09:04:34.305Z,97241.28
2018-05-17T09:07:01.794Z,97232.00
2018-05-17T09:09:29.262Z,97233.73
2018-05-17T09:11:56.778Z,97232.30
2018-05-17T09:14:24.230Z,97230.00
2018-05-17T09:16:51.820Z,97230.34
2018-05-17T09:19:19.256Z,97225.80
2018-05-17T09:21:46.728Z,97218.22
2018-05-17T09:24:14.165Z,97222.75
2018-05-17T09:26:41.571Z,97222.51
2018-05-17T09:29:09.120Z,97221.58
2018-05-17T09:31:37.694Z,97216.26
2018-05-17T09:34:05.164Z,97212.63
2018-05-17T09:36:33.445Z,97214.53
2018-05-17T09:39:01.981Z,97216.94
2018-05-17T09:41:29.475Z,97212.98
2018-05-17T09:43:57.757Z,97208.09
2018-05-17T09:46:25.243Z,97208.76
2018-05-17T09:48:52.666Z,97212.29
2018-05-17T09:51:20.119Z,97209.73
2018-05-17T09:53:47.556Z,97213.73
2018-05-17T09:56:15.007Z,97211.15
2018-05-17T09:58:42.496Z,97211.66
2018-05-17T10:01:09.980Z,97211.36
2018-05-17T10:03:37.431Z,97214.55
2018-05-17T10:06:04.897Z,97218.77
2018-05-17T10:08:32.426Z,97209.98
2018-05-17T10:11:00.059Z,97214.91
2018-05-17T10:13:29.579Z,97219.06
2018-05-17T10:15:57.865Z,97214.08
2018-05-17T10:18:25.396Z,97216.62
2018-05-17T10:20:53.768Z,97212.34
2018-05-17T10:23:21.245Z,97210.39
2018-05-17T10:25:48.724Z,97213.13
2018-05-17T10:28:16.208Z,97204.94
2018-05-17T10:30:43.651Z,97203.52
2018-05-17T10:33:11.121Z,97210.46
2018-05-17T10:35:39.396Z,97214.84
2018-05-17T10:38:06.826Z,97204.56
2018-05-17T10:40:37.262Z,97205.58
2018-05-17T10:43:05.752Z,97204.59
2018-05-17T10:45:33.203Z,97207.67
2018-05-17T10:48:01.571Z,97207.00
2018-05-17T10:50:29.111Z,97203.25
2018-05-17T10:52:56.551Z,97200.44
2018-05-17T10:55:24.022Z,97209.00
2018-05-17T10:57:51.517Z,97205.09
2018-05-17T11:00:19.028Z,97207.20
2018-05-17T11:02:46.451Z,97198.22
2018-05-17T11:05:13.959Z,97202.00
2018-05-17T11:07:41.565Z,97197.19
2018-05-17T11:10:09.039Z,97200.70
2018-05-17T11:12:36.477Z,97193.32
2018-05-17T11:15:04.022Z,97191.73
2018-05-17T11:17:31.504Z,97192.15
2018-05-17T11:19:58.947Z,97179.20
2018-05-17T11:22:26.425Z,97187.32
2018-05-17T11:24:53.853Z,97188.58
2018-05-17T11:27:21.297Z,97185.34
2018-05-17T11:29:49.882Z,97184.75
2018-05-17T11:32:17.373Z,97175.04
2018-05-17T11:34:45.673Z,97183.58
2018-05-17T11:37:13.247Z,97181.91
2018-05-17T11:39:40.746Z,97174.16
2018-05-17T11:42:08.580Z,97171.55
2018-05-17T11:44:36.019Z,97173.86
2018-05-17T11:47:03.684Z,97170.38
2018-05-17T11:49:34.675Z,97163.22
2018-05-17T11:52:06.327Z,97174.95
2018-05-17T11:54:33.840Z,97168.40
2018-05-17T11:57:01.317Z,97166.91
2018-05-17T11:59:28.801Z,97156.30
2018-05-17T12:01:56.236Z,97166.04
2018-05-17T12:04:23.678Z,97157.30
2018-05-17T12:06:51.239Z,97157.31
2018-05-17T12:09:18.791Z,97154.19
2018-05-17T12:11:46.216Z,97158.36
2018-05-17T12:14:13.842Z,97148.94
2018-05-17T12:16:41.154Z,97153.56
2018-05-17T12:19:09.778Z,97148.01
2018-05-17T12:21:37.252Z,97143.16
2018-05-17T12:24:07.228Z,97131.19
2018-05-17T12:26:34.638Z,97140.96
2018-05-17T12:29:02.089Z,97146.41
2018-05-17T12:31:29.482Z,97146.77
2018-05-17T12:33:56.969Z,97145.39
2018-05-17T12:36:24.397Z,97140.50
2018-05-17T12:38:51.853Z,97142.77
2018-05-17T12:41:19.474Z,97140.34
2018-05-17T12:43:46.889Z,97143.45
2018-05-17T12:46:14.321Z,97143.13
2018-05-17T12:48:41.755Z,97149.06
2018-05-17T12:51:09.241Z,97132.59
2018-05-17T12:53:36.679Z,97134.34
2018-05-17T12:56:05.031Z,97135.48
2018-05-17T12:58:34.156Z,97124.98
2018-05-17T13:01:01.664Z,97129.41
2018-05-17T13:03:29.096Z,97121.84
2018-05-17T13:05:56.719Z,97136.44
2018-05-17T13:08:24.252Z,97127.38
2018-05-17T13:10:51.736Z,97122.78
2018-05-17T13:13:19.465Z,97132.03
2018-05-17T13:15:47.308Z,97123.61
2018-05-17T13:18:14.721Z,97124.70
2018-05-17T13:20:42.175Z,97123.75
2018-05-17T13:23:09.651Z,97114.76
2018-05-17T13:25:37.056Z,97112.23
2018-05-17T13:28:04.498Z,97119.78
2018-05-17T13:30:32.193Z,97111.34
2018-05-17T13:32:59.670Z,97107.06
2018-05-17T13:35:27.079Z,97117.52
2018-05-17T13:37:54.515Z,97102.91
2018-05-17T13:40:22.032Z,97112.78
2018-05-17T13:42:49.432Z,97110.33
2018-05-17T13:45:17.049Z,97117.61
2018-05-17T13:47:44.505Z,97116.44
2018-05-17T13:50:11.968Z,97115.17
2018-05-17T13:52:39.448Z,97119.17
2018-05-17T13:55:06.992Z,97122.40
2018-05-17T13:57:34.590Z,97112.72
2018-05-17T14:00:02.160Z,97114.59
2018-05-17T14:02:29.794Z,97108.73
2018-05-17T14:04:57.196Z,97115.23
2018-05-17T14:07:24.643Z,97117.44
2018-05-17T14:09:52.187Z,97112.73
2018-05-17T14:12:19.638Z,97112.55
2018-05-17T14:14:47.226Z,97106.02
2018-05-17T14:17:14.640Z,97112.86
2018-05-17T14:19:42.078Z,97108.94
2018-05-17T14:22:09.585Z,97112.03
2018-05-17T14:24:37.046Z,97111.09
2018-05-17T14:27:04.487Z,97115.45
2018-05-17T14:29:34.809Z,97105.30
2018-05-17T14:32:02.430Z,97112.33
2018-05-17T14:34:29.839Z,97100.59
2018-05-17T14:36:57.283Z,97104.02
2018-05-17T14:39:24.700Z,97103.38
2018-05-17T14:41:52.176Z,97105.13
2018-05-17T14:44:19.658Z,97100.30
2018-05-17T14:46:47.127Z,97103.89
2018-05-17T14:49:15.904Z,97100.42
2018-05-17T14:51:43.329Z,97096.87
2018-05-17T14:54:11.080Z,97098.22
2018-05-17T14:56:38.520Z,97095.29
2018-05-17T14:59:07.166Z,97093.31
2018-05-17T15:01:34.626Z,97099.23
2018-05-17T15:04:02.856Z,97099.73
2018-05-17T15:06:31.180Z,97099.66
2018-05-17T15:08:58.661Z,97098.64
2018-05-17T15:11:26.164Z,97100.20
2018-05-17T15:13:53.601Z,97094.81
2018-05-17T15:16:21.005Z,97097.45
2018-05-17T15:18:48.448Z,97098.88
2018-05-17T15:21:15.987Z,97090.77
2018-05-17T15:23:44.086Z,97083.52
2018-05-17T15:26:11.539Z,97092.52
2018-05-17T15:28:39.024Z,97092.60
2018-05-17T15:31:07.146Z,97082.10
2018-05-17T15:33:34.580Z,97082.88
2018-05-17T15:36:02.215Z,97079.25
2018-05-17T15:38:29.644Z,97084.51
2018-05-17T15:40:57.058Z,97085.53
2018-05-17T15:43:24.522Z,97086.55
2018-05-17T15:45:51.983Z,97093.25
2018-05-17T15:48:19.636Z,97088.42
2018-05-17T15:50:48.079Z,97081.53
2018-05-17T15:53:15.616Z,97092.91
2018-05-17T15:55:43.134Z,97092.16
2018-05-17T15:58:10.688Z,97089.95
2018-05-17T16:00:39.005Z,97093.33
2018-05-17T16:03:07.013Z,97095.17
2018-05-17T16:05:34.418Z,97096.89
2018-05-17T16:08:01.870Z,97093.30
2018-05-17T16:10:29.896Z,97093.14
2018-05-17T16:12:57.364Z,97095.81
2018-05-17T16:15:24.865Z,97097.48
2018-05-17T16:17:52.244Z,97093.73
2018-05-17T16:20:19.729Z,97093.65
2018-05-17T16:22:48.754Z,97093.17
2018-05-17T16:25:17.417Z,97100.77
2018-05-17T16:27:44.479Z,97090.15
2018-05-17T16:30:11.915Z,97102.77
2018-05-17T16:32:39.541Z,97092.52
2018-05-17T16:35:06.997Z,97099.73
2018-05-17T16:37:34.468Z,97104.31
2018-05-17T16:40:01.915Z,97101.62
2018-05-17T16:42:29.470Z,97101.50
2018-05-17T16:44:57.974Z,97101.64
2018-05-17T16:47:25.435Z,97105.88
2018-05-17T16:49:52.986Z,97105.30
2018-05-17T16:52:20.483Z,97089.98
2018-05-17T16:54:48.703Z,97108.01
2018-05-17T16:57:16.231Z,97111.02
2018-05-17T16:59:43.642Z,97107.69
2018-05-17T17:02:11.108Z,97115.02
2018-05-17T17:04:39.687Z,97118.07
2018-05-17T17:07:07.146Z,97116.41
2018-05-17T17:09:34.603Z,97122.03
2018-05-17T17:12:02.049Z,97123.03
2018-05-17T17:14:29.131Z,97122.43
2018-05-17T17:16:57.172Z,97125.77
2018-05-17T17:19:24.657Z,97124.69
2018-05-17T17:21:52.119Z,97119.87
2018-05-17T17:24:20.793Z,97123.80
2018-05-17T17:26:52.044Z,97127.06
2018-05-17T17:29:19.492Z,97136.27
2018-05-17T17:31:46.975Z,97141.01
2018-05-17T17:34:14.506Z,97136.97
2018-05-17T17:36:41.867Z,97139.22
2018-05-17T17:39:09.297Z,97140.48
2018-05-17T17:41:36.773Z,97146.27
2018-05-17T17:44:04.206Z,97140.41
2018-05-17T17:46:32.479Z,97150.91
2018-05-17T17:48:59.999Z,97145.41
2018-05-17T17:51:27.490Z,97146.59
2018-05-17T17:53:54.994Z,97145.97
2018-05-17T17:56:22.462Z,97149.46
2018-05-17T17:58:50.544Z,97151.10
2018-05-17T18:01:18.007Z,97149.86
2018-05-17T18:03:45.526Z,97148.89
2018-05-17T18:06:13.054Z,97155.47
2018-05-17T18:08:40.410Z,97157.94
2018-05-17T18:11:07.837Z,97151.19
2018-05-17T18:13:35.291Z,97151.44
2018-05-17T18:16:03.298Z,97160.59
2018-05-17T18:18:30.801Z,97159.95
2018-05-17T18:20:59.617Z,97165.31
2018-05-17T18:23:28.047Z,97167.63
2018-05-17T18:25:55.607Z,97172.82
2018-05-17T18:28:23.037Z,97168.06
2018-05-17T18:30:50.492Z,97164.70
2018-05-17T18:33:17.917Z,97168.35
2018-05-17T18:35:45.351Z,97171.28
2018-05-17T18:38:12.813Z,97179.69
2018-05-17T18:40:40.236Z,97173.33
2018-05-17T18:43:07.696Z,97180.58
2018-05-17T18:45:35.135Z,97177.93
2018-05-17T18:48:03.350Z,97188.18
2018-05-17T18:50:30.764Z,97191.36
2018-05-17T18:52:58.167Z,97194.59
2018-05-17T18:55:25.572Z,97198.03
2018-05-17T18:57:53.015Z,97196.45
2018-05-17T19:00:20.507Z,97207.61
2018-05-17T19:02:48.189Z,97210.25
2018-05-17T19:05:15.566Z,97207.11
2018-05-17T19:07:43.041Z,97215.14
2018-05-17T19:10:10.489Z,97211.61
2018-05-17T19:12:38.827Z,97214.73
2018-05-17T19:15:06.318Z,97224.62
2018-05-17T19:17:33.772Z,97214.17
2018-05-17T19:20:01.221Z,97227.14
2018-05-17T19:22:28.654Z,97236.73
2018-05-17T19:24:56.144Z,97237.79
2018-05-17T19:27:23.562Z,97247.52
2018-05-17T19:29:51.059Z,97245.91
2018-05-17T19:32:18.530Z,97244.98
2018-05-17T19:34:46.000Z,97250.08
2018-05-17T19:37:13.560Z,97241.09
2018-05-17T19:39:41.130Z,97247.12
2018-05-17T19:42:08.568Z,97253.63
2018-05-17T19:44:36.971Z,97249.20
2018-05-17T19:47:04.454Z,97244.97
2018-05-17T19:49:32.055Z,97250.75
2018-05-17T19:51:59.601Z,97253.76
2018-05-17T19:54:27.047Z,97247.84
2018-05-17T19:56:56.639Z,97256.24
2018-05-17T19:59:24.172Z,97256.59
2018-05-17T20:01:51.539Z,97258.63
2018-05-17T20:04:18.945Z,97262.62
2018-05-17T20:06:46.399Z,97265.31
2018-05-17T20:09:13.891Z,97267.54
2018-05-17T20:11:41.306Z,97267.78
2018-05-17T20:14:08.791Z,97267.06
2018-05-17T20:16:36.304Z,97267.66
2018-05-17T20:19:03.744Z,97269.70
2018-05-17T20:21:31.219Z,97268.41
2018-05-17T20:23:58.706Z,97275.23
2018-05-17T20:26:26.160Z,97273.80
2018-05-17T20:28:53.593Z,97272.06
2018-05-17T20:31:21.083Z,97271.06
2018-05-17T20:33:48.503Z,97276.91
2018-05-17T20:36:19.526Z,97278.84
2018-05-17T20:38:47.000Z,97281.19
2018-05-17T20:41:16.518Z,97269.20
2018-05-17T20:43:44.117Z,97279.03
2018-05-17T20:46:11.660Z,97277.58
2018-05-17T20:48:39.266Z,97277.31
2018-05-17T20:51:06.786Z,97267.02
2018-05-17T20:53:34.220Z,97268.02
2018-05-17T20:56:01.732Z,97275.36
2018-05-17T20:58:29.162Z,97278.34
2018-05-17T21:00:56.599Z,97271.51
2018-05-17T21:03:27.435Z,97269.47
2018-05-17T21:05:54.927Z,97269.77
2018-05-17T21:08:22.363Z,97272.86
2018-05-17T21:10:50.006Z,97270.63
2018-05-17T21:13:17.544Z,97271.73
2018-05-17T21:15:44.973Z,97274.29
2018-05-17T21:18:12.459Z,97274.50
2018-05-17T21:20:39.935Z,97268.56
2018-05-17T21:23:07.391Z,97258.88
2018-05-17T21:25:34.848Z,97260.73
2018-05-17T21:28:02.296Z,97267.13
2018-05-17T21:30:29.760Z,97271.77
2018-05-17T21:32:57.214Z,97269.80
2018-05-17T21:35:24.670Z,97272.17
2018-05-17T21:37:52.144Z,97268.97
2018-05-17T21:40:19.607Z,97271.39
2018-05-17T21:42:47.031Z,97268.52
2018-05-17T21:45:14.422Z,97274.72
2018-05-17T21:47:41.864Z,97276.15
2018-05-17T21:50:09.335Z,97279.89
2018-05-17T21:52:36.785Z,97277.78
2018-05-17T21:55:04.382Z,97279.17
2018-05-17T21:57:31.843Z,97288.44
2018-05-17T21:59:59.947Z,97289.19
2018-05-17T22:02:27.414Z,97286.02
2018-05-17T22:04:55.607Z,97291.57
2018-05-17T22:07:23.028Z,97286.66
2018-05-17T22:09:50.560Z,97289.36
2018-05-17T22:12:18.037Z,97292.05
2018-05-17T22:14:45.710Z,97298.50
2018-05-17T22:17:13.147Z,97296.41
2018-05-17T22:19:40.903Z,97295.25
2018-05-17T22:22:08.336Z,97293.20
2018-05-17T22:24:35.816Z,97293.09
2018-05-17T22:27:03.267Z,97289.06
2018-05-17T22:29:30.708Z,97296.45
2018-05-17T22:31:58.138Z,97292.23
2018-05-17T22:34:25.705Z,97285.55
2018-05-17T22:36:53.161Z,97293.30
2018-05-17T22:39:20.576Z,97292.97
2018-05-17T22:41:48.625Z,97288.34
2018-05-17T22:44:16.097Z,97288.33
2018-05-17T22:46:43.561Z,97288.11
2018-05-17T22:49:11.058Z,97287.48
2018-05-17T22:51:38.689Z,97283.33
2018-05-17T22:54:06.090Z,97281.59
2018-05-17T22:56:45.346Z,97285.67
2018-05-17T22:59:12.959Z,97286.09
2018-05-17T23:01:40.570Z,97283.86
2018-05-17T23:04:07.987Z,97284.58
2018-05-17T23:06:35.450Z,97280.92
2018-05-17T23:09:02.955Z,97283.29
2018-05-17T23:11:30.447Z,97285.16
2018-05-17T23:13:57.997Z,97280.97
2018-05-17T23:16:25.436Z,97283.74
2018-05-17T23:18:52.885Z,97291.00
2018-05-17T23:21:20.386Z,97288.80
2018-05-17T23:23:47.821Z,97300.55
2018-05-17T23:26:15.325Z,97299.95
2018-05-17T23:28:43.598Z,97299.22
2018-05-17T23:31:11.076Z,97301.27
2018-05-17T23:33:38.596Z,97303.37
2018-05-17T23:36:06.601Z,97303.23
2018-05-17T23:38:34.515Z,97305.53
2018-05-17T23:41:13.795Z,97302.29
2018-05-17T23:43:41.272Z,97298.64
2018-05-17T23:46:08.753Z,97291.12
2018-05-17T23:48:36.208Z,97289.10
2018-05-17T23:51:03.715Z,97281.09
2018-05-17T23:53:32.052Z,97286.13
2018-05-17T23:55:59.496Z,97278.56
2018-05-17T23:58:26.935Z,97279.54
